Aviation Digital Data Service (ADDS)

Output produced by TAFs form (0801 UTC 05 March 2015)
found at http://aviationweather.gov/adds/tafs/
 
KCNM 050520Z 0506/0606 05007KT P6SM OVC015 
     FM051500 VRB04KT P6SM BKN020 
     FM051800 12006KT P6SM SCT025 
     FM052100 16006KT P6SM SKC